Time;durP1;ratioP1;P1;durP2;ratioP2;P2;SDS_P1;SDS_P2;PMS_P1;PMS_P2;Temp;Humidity;BMP_temperature;BMP_pressure;BME280_temperature;BME280_humidity;BME280_pressure;Samples;Min_cycle;Max_cycle;Signal;HPM_P1;HPM_P2
2022/03/03 00:02:48;;;;;;;18.53;13.33;;;;;;;5.70;46.42;99073.56;6984430;28;20216;-85
2022/03/03 00:06:09;;;;;;;21.00;13.30;;;;;;;5.29;46.07;99003.22;6982044;28;20224;-85
2022/03/03 00:09:32;;;;;;;16.87;12.90;;;;;;;5.69;45.60;99075.41;6981693;28;20205;-85
2022/03/03 00:12:54;;;;;;;19.20;13.23;;;;;;;5.15;47.14;99105.44;6978748;28;20237;-85
2022/03/03 00:16:16;;;;;;;17.43;12.60;;;;;;;5.02;48.54;99094.38;6979449;28;20237;-85
2022/03/03 00:19:37;;;;;;;17.47;13.43;;;;;;;4.97;48.16;99082.50;6978896;28;20203;-85
2022/03/03 00:22:59;;;;;;;15.53;12.93;;;;;;;4.88;47.71;99032.72;6979479;28;20230;-85
2022/03/03 00:26:22;;;;;;;17.27;13.17;;;;;;;5.25;46.98;99083.91;6978310;28;20208;-84
2022/03/03 00:29:43;;;;;;;23.80;13.93;;;;;;;5.18;46.53;99051.66;6978684;28;20195;-85
2022/03/03 00:33:05;;;;;;;19.20;13.50;;;;;;;4.60;47.47;99092.75;6975642;28;20225;-86
2022/03/03 00:36:27;;;;;;;21.13;13.73;;;;;;;3.62;50.98;99078.97;6977276;28;20259;-85
2022/03/03 00:39:48;;;;;;;18.50;12.97;;;;;;;4.71;49.31;99071.09;6975999;28;20215;-85
2022/03/03 00:43:12;;;;;;;19.77;13.57;;;;;;;4.39;48.32;99007.72;6977134;28;20219;-85
2022/03/03 00:46:34;;;;;;;21.30;13.60;;;;;;;4.86;48.64;99080.13;6977495;28;20209;-85
2022/03/03 00:50:18;;;;;;;20.90;13.90;;;;;;;4.35;47.89;99008.19;6976924;28;20212;-85
2022/03/03 00:53:40;;;;;;;20.43;13.87;;;;;;;4.23;49.69;99082.38;6972345;28;20228;-86
2022/03/03 00:57:02;;;;;;;20.67;13.43;;;;;;;4.02;49.48;99035.75;6976865;28;20238;-85
2022/03/03 01:00:25;;;;;;;21.63;14.87;;;;;;;4.05;50.05;99076.28;6976509;28;20222;-86
2022/03/03 01:03:46;;;;;;;20.07;14.27;;;;;;;4.17;50.54;99100.84;6974709;28;20576;-83
2022/03/03 01:07:08;;;;;;;20.23;14.83;;;;;;;4.18;50.19;99098.03;6973581;28;20257;-84
2022/03/03 01:10:29;;;;;;;21.53;14.30;;;;;;;3.77;49.46;99036.59;6978120;28;20224;-85
2022/03/03 01:13:51;;;;;;;19.73;14.27;;;;;;;4.18;49.10;99041.16;6975623;28;20235;-83
2022/03/03 01:17:18;;;;;;;21.70;15.13;;;;;;;4.70;48.05;99091.59;6974366;28;20235;-83
2022/03/03 01:20:40;;;;;;;20.07;13.47;;;;;;;4.05;49.38;99070.94;6973734;28;20209;-84
2022/03/03 01:24:02;;;;;;;20.23;13.67;;;;;;;4.50;49.49;99121.38;6978384;28;20597;-85
2022/03/03 01:27:24;;;;;;;18.83;14.47;;;;;;;4.53;48.45;99089.88;6977909;28;20215;-85
2022/03/03 01:30:46;;;;;;;19.00;13.10;;;;;;;4.28;48.11;98997.34;6968702;28;20199;-85
2022/03/03 01:34:09;;;;;;;21.67;14.13;;;;;;;4.46;47.49;99011.41;6979511;28;20226;-83
2022/03/03 01:37:31;;;;;;;17.80;12.73;;;;;;;4.15;47.31;98958.75;6973301;28;20225;-84
2022/03/03 01:40:52;;;;;;;17.73;13.80;;;;;;;4.12;47.93;99057.81;6975559;28;20209;-83
2022/03/03 01:44:14;;;;;;;23.90;14.93;;;;;;;2.51;51.93;99007.69;6978968;28;20222;-84
2022/03/03 01:47:36;;;;;;;16.73;13.60;;;;;;;2.62;52.96;99027.91;6976759;28;20207;-83
2022/03/03 01:51:00;;;;;;;24.20;15.10;;;;;;;2.90;52.15;98965.63;6975023;28;20202;-83
2022/03/03 01:54:22;;;;;;;20.17;13.90;;;;;;;2.71;52.52;99022.53;6979768;28;20234;-85
2022/03/03 01:57:43;;;;;;;21.37;14.50;;;;;;;3.76;50.46;99064.22;6982833;28;20255;-84
2022/03/03 02:01:05;;;;;;;19.77;13.60;;;;;;;3.93;50.33;99042.84;6982189;28;20207;-86
2022/03/03 02:04:27;;;;;;;19.10;14.27;;;;;;;3.87;49.57;99056.81;6982940;28;20223;-86
2022/03/03 02:07:50;;;;;;;22.70;14.53;;;;;;;3.58;51.44;99076.75;6982985;28;20199;-85
2022/03/03 02:11:12;;;;;;;19.40;13.97;;;;;;;3.36;51.88;98998.13;6982859;28;20212;-85
2022/03/03 02:14:41;;;;;;;19.13;14.23;;;;;;;3.96;49.79;99028.38;6984265;28;20218;-87
2022/03/03 02:18:03;;;;;;;19.50;14.23;;;;;;;3.91;50.17;99076.00;6984164;28;20224;-84
2022/03/03 02:21:26;;;;;;;22.03;14.33;;;;;;;3.72;50.84;99079.69;6983045;28;20710;-85
2022/03/03 02:24:48;;;;;;;20.13;14.03;;;;;;;4.21;50.12;99073.69;6983352;28;20207;-85
2022/03/03 02:28:09;;;;;;;22.17;14.70;;;;;;;4.22;49.84;99077.19;6984728;28;20196;-85
2022/03/03 02:31:31;;;;;;;17.93;13.17;;;;;;;3.95;49.88;99074.72;6983954;28;20230;-86
2022/03/03 02:34:53;;;;;;;20.30;15.03;;;;;;;3.95;49.99;99064.88;6984963;28;20220;-85
2022/03/03 02:38:16;;;;;;;20.40;14.50;;;;;;;3.31;49.35;98920.50;6986754;28;20220;-84
2022/03/03 02:41:38;;;;;;;25.10;15.53;;;;;;;2.69;52.06;99064.44;6985374;28;20230;-85
2022/03/03 02:45:01;;;;;;;22.20;14.03;;;;;;;3.59;51.84;99073.13;6986825;28;20731;-85
2022/03/03 02:48:58;;;;;;;20.23;13.97;;;;;;;3.29;51.91;99077.03;6987386;28;20319;-85
2022/03/03 02:52:24;;;;;;;18.43;13.77;;;;;;;3.72;50.21;99018.38;6987037;28;20222;-84
2022/03/03 02:55:53;;;;;;;20.77;14.03;;;;;;;4.01;50.02;99048.22;6987818;28;20212;-85
2022/03/03 03:04:10;;;;;;;24.17;13.67;;;;;;;3.73;50.22;99060.03;6948404;28;20244;-86
2022/03/03 03:07:41;;;;;;;21.10;14.77;;;;;;;3.54;50.83;99057.56;6983604;28;20211;-85
2022/03/03 03:14:44;;;;;;;24.10;13.80;;;;;;;3.17;51.76;99029.44;6984234;28;20295;-85
2022/03/03 03:18:14;;;;;;;23.17;14.93;;;;;;;2.59;52.95;99028.22;6986926;28;20225;-86
2022/03/03 03:21:36;;;;;;;20.47;13.97;;;;;;;3.31;52.38;99075.03;6988413;28;20227;-86
2022/03/03 03:29:23;;;;;;;21.40;14.37;;;;;;;3.76;50.50;99041.06;6978627;28;20195;-84
2022/03/03 03:33:33;;;;;;;29.43;13.57;;;;;;;3.51;49.64;98985.09;6989743;28;20295;-85
2022/03/03 03:37:03;;;;;;;21.10;14.60;;;;;;;3.49;50.55;99035.88;6985012;28;20230;-85
2022/03/03 03:40:24;;;;;;;23.00;13.70;;;;;;;3.67;50.49;99035.84;6988360;28;20202;-85
2022/03/03 03:43:46;;;;;;;20.53;14.47;;;;;;;3.00;51.12;98939.75;6989300;28;20236;-85
2022/03/03 03:47:10;;;;;;;20.90;14.60;;;;;;;3.71;50.25;99022.03;6988455;28;20219;-86
2022/03/03 03:50:35;;;;;;;20.50;13.60;;;;;;;3.86;49.40;99012.47;6988977;28;20263;-85
2022/03/03 03:54:06;;;;;;;22.60;15.63;;;;;;;2.59;50.99;98922.59;6989319;28;20229;-86
2022/03/03 03:57:31;;;;;;;22.63;15.23;;;;;;;3.38;50.59;99017.50;6988396;28;20235;-85
2022/03/03 04:01:02;;;;;;;23.80;14.67;;;;;;;3.35;50.09;99011.59;6988674;28;20203;-86
2022/03/03 04:04:28;;;;;;;18.60;14.83;;;;;;;3.11;50.19;99003.41;6987370;28;20231;-87
2022/03/03 04:07:56;;;;;;;22.23;14.93;;;;;;;3.27;51.49;99003.56;6986252;28;20199;-84
2022/03/03 04:11:18;;;;;;;21.57;15.03;;;;;;;3.33;50.68;99001.13;6986070;28;20202;-85
2022/03/03 04:14:43;;;;;;;24.37;15.33;;;;;;;2.61;51.91;98931.25;6987007;28;20198;-85
2022/03/03 04:18:05;;;;;;;22.63;14.83;;;;;;;3.40;50.78;99006.66;6987605;28;20233;-85
2022/03/03 04:21:31;;;;;;;22.10;14.07;;;;;;;3.49;50.94;99009.22;6987572;28;20248;-85
2022/03/03 04:28:56;;;;;;;24.43;14.87;;;;;;;3.63;49.79;99000.66;6925062;28;20204;-86
2022/03/03 04:32:18;;;;;;;20.33;15.53;;;;;;;3.81;49.95;98979.25;6979861;28;20325;-87
2022/03/03 04:35:39;;;;;;;21.30;14.33;;;;;;;3.12;49.88;98941.19;6982448;28;20211;-87
2022/03/03 04:39:03;;;;;;;19.83;14.57;;;;;;;2.77;51.81;98968.69;6982160;28;20230;-87
2022/03/03 04:42:24;;;;;;;19.27;14.07;;;;;;;3.52;50.81;98976.09;6980971;28;20224;-87
2022/03/03 04:45:46;;;;;;;20.67;14.00;;;;;;;3.14;51.24;98960.50;6981372;28;20714;-87
2022/03/03 04:49:08;;;;;;;19.47;14.67;;;;;;;3.20;51.52;98970.53;6980593;28;20209;-87
2022/03/03 04:52:33;;;;;;;24.37;14.30;;;;;;;3.28;50.94;98981.25;6982453;28;20222;-87
2022/03/03 04:55:56;;;;;;;23.40;15.37;;;;;;;3.52;50.90;99000.06;6986132;28;20209;-85
2022/03/03 04:59:42;;;;;;;19.23;14.13;;;;;;;3.71;50.21;98989.22;6987907;28;20235;-86
2022/03/03 05:03:04;;;;;;;20.87;14.47;;;;;;;2.83;50.86;98906.00;6982878;28;20223;-86
2022/03/03 05:06:28;;;;;;;21.17;14.40;;;;;;;3.07;50.50;98872.38;6988029;28;20218;-86
2022/03/03 05:09:51;;;;;;;21.00;15.73;;;;;;;3.94;49.09;98975.19;6986776;28;20274;-85
2022/03/03 05:13:14;;;;;;;20.73;15.40;;;;;;;3.77;48.61;98954.75;6986757;28;20228;-86
2022/03/03 05:16:36;;;;;;;23.93;14.93;;;;;;;3.02;50.05;98882.66;6985870;28;20218;-86
2022/03/03 05:19:58;;;;;;;27.90;16.30;;;;;;;3.50;50.34;98940.78;6984620;28;20234;-86
2022/03/03 05:23:25;;;;;;;21.00;15.33;;;;;;;3.21;50.23;98889.63;6989734;28;20223;-89
2022/03/03 05:26:50;;;;;;;25.27;15.53;;;;;;;3.08;51.23;98942.47;6989508;28;20225;-89
2022/03/03 05:30:14;;;;;;;21.57;16.37;;;;;;;2.04;52.68;98875.84;6986137;28;20202;-87
2022/03/03 05:33:36;;;;;;;21.07;15.47;;;;;;;2.42;53.66;98949.22;6965186;28;20306;-87
2022/03/03 05:36:58;;;;;;;26.90;15.43;;;;;;;2.83;52.88;98943.28;6967589;28;20807;-87
2022/03/03 05:40:20;;;;;;;23.93;16.70;;;;;;;3.32;51.89;98942.66;6974051;28;20207;-88
2022/03/03 05:43:46;;;;;;;24.40;16.43;;;;;;;3.09;51.45;98954.81;6991863;28;20305;-86
2022/03/03 05:47:12;;;;;;;27.23;17.27;;;;;;;2.52;52.28;98883.44;6987117;28;20191;-86
2022/03/03 05:54:49;;;;;;;22.97;16.27;;;;;;;3.43;50.73;98961.06;6975748;28;20211;-86
2022/03/03 05:58:56;;;;;;;24.97;17.33;;;;;;;3.36;50.75;98954.69;6986132;28;20656;-89
2022/03/03 06:02:20;;;;;;;25.90;15.93;;;;;;;2.83;50.91;98874.88;6985864;28;20240;-88
2022/03/03 06:05:51;;;;;;;23.67;16.77;;;;;;;3.43;50.46;98977.03;6988820;28;20218;-86
2022/03/03 06:09:40;;;;;;;27.80;17.63;;;;;;;3.59;49.74;98979.81;6988477;28;20639;-89
2022/03/03 06:22:13;;;;;;;22.87;16.67;;;;;;;3.05;51.67;98978.25;6941792;28;20224;-87
2022/03/03 06:25:35;;;;;;;24.23;15.90;;;;;;;2.64;52.06;98968.22;6943463;28;20333;-87
2022/03/03 06:29:39;;;;;;;22.93;15.77;;;;;;;2.91;52.33;98981.47;6943299;28;20215;-88
2022/03/03 07:02:57;;;;;;;25.27;17.63;;;;;;;3.24;51.76;98876.00;6830061;29;20256;-87
2022/03/03 07:40:14;;;;;;;21.40;15.60;;;;;;;7.44;42.63;98930.94;6841013;28;20242;-82
2022/03/03 07:43:35;;;;;;;20.97;15.97;;;;;;;7.35;44.31;98918.59;6861877;28;20244;-80
2022/03/03 07:46:58;;;;;;;21.73;16.60;;;;;;;8.55;41.23;98917.19;6860676;28;20259;-80
2022/03/03 07:50:21;;;;;;;26.30;17.50;;;;;;;8.15;42.69;98912.34;6859303;28;20209;-80
2022/03/03 07:53:43;;;;;;;23.87;16.87;;;;;;;9.00;40.35;98900.72;6859937;28;20235;-80
2022/03/03 07:57:48;;;;;;;;;;;;;;;;;;;;;
2022/03/03 08:13:39;;;;;;;20.93;16.63;;;;;;;10.05;38.30;98895.91;7043641;27;20356;-77
2022/03/03 08:17:38;;;;;;;23.73;17.43;;;;;;;9.46;36.78;98783.53;7053549;27;20234;-77
2022/03/03 08:25:23;;;;;;;20.30;16.27;;;;;;;10.76;36.40;98878.34;7036894;27;20237;-77
2022/03/03 08:28:49;;;;;;;23.30;16.57;;;;;;;10.39;36.18;98779.97;7055411;27;20205;-77
2022/03/03 08:32:11;;;;;;;21.43;16.50;;;;;;;11.41;34.84;98881.09;7047609;28;20218;-77
2022/03/03 08:39:21;;;;;;;21.63;16.97;;;;;;;10.44;35.28;98782.88;7053332;28;20281;-77
2022/03/03 08:42:46;;;;;;;21.60;16.03;;;;;;;10.29;37.37;98862.25;7055394;28;20192;-77
2022/03/03 08:46:09;;;;;;;23.17;15.67;;;;;;;10.67;35.85;98799.50;7055486;28;20208;-77
2022/03/03 08:49:39;;;;;;;21.33;15.57;;;;;;;10.85;36.35;98901.38;7045992;28;20212;-77
2022/03/03 08:53:04;;;;;;;19.93;15.00;;;;;;;10.93;36.10;98852.66;7027074;28;20212;-77
2022/03/03 08:56:29;;;;;;;20.20;15.43;;;;;;;11.11;34.76;98793.50;7027662;28;20189;-77
2022/03/03 08:59:51;;;;;;;21.07;15.07;;;;;;;11.69;33.92;98798.81;7027298;28;20221;-77
2022/03/03 09:03:15;;;;;;;21.07;15.40;;;;;;;11.28;34.73;98809.06;7027151;28;20555;-77
2022/03/03 09:06:37;;;;;;;19.83;16.17;;;;;;;12.88;32.91;98877.31;7026892;28;20300;-77
2022/03/03 09:09:58;;;;;;;19.43;15.40;;;;;;;13.83;31.15;98785.66;7026977;28;20230;-78
2022/03/03 09:13:20;;;;;;;20.90;15.87;;;;;;;13.86;32.01;98879.22;7026727;28;20621;-77
2022/03/03 09:16:42;;;;;;;20.50;14.47;;;;;;;14.43;30.22;98783.84;7027067;28;20559;-77
2022/03/03 09:20:07;;;;;;;20.33;15.90;;;;;;;15.05;29.15;98862.09;7026833;28;20242;-78
2022/03/03 09:23:29;;;;;;;17.00;14.27;;;;;;;13.72;29.48;98762.03;7026207;28;20209;-80
2022/03/03 09:26:50;;;;;;;19.33;14.70;;;;;;;14.74;28.79;98873.19;7026095;28;20215;-78
2022/03/03 09:30:13;;;;;;;21.07;14.63;;;;;;;13.85;30.27;98869.41;7025975;28;20204;-78
2022/03/03 09:33:35;;;;;;;19.57;14.30;;;;;;;14.19;29.74;98850.72;7025781;28;20216;-76
2022/03/03 09:36:58;;;;;;;19.23;15.47;;;;;;;14.49;29.71;98859.75;7024716;28;20215;-75
2022/03/03 09:40:20;;;;;;;21.30;15.77;;;;;;;14.26;29.96;98865.03;7024959;28;20226;-75
2022/03/03 09:43:42;;;;;;;20.33;15.27;;;;;;;14.33;29.22;98860.34;7024230;28;20543;-75
2022/03/03 09:47:04;;;;;;;17.57;14.57;;;;;;;13.91;30.52;98823.28;7025004;28;20336;-76
2022/03/03 09:50:27;;;;;;;22.53;15.20;;;;;;;14.20;29.20;98800.03;7024257;28;20198;-76
2022/03/03 09:53:51;;;;;;;17.93;14.00;;;;;;;14.80;28.46;98856.78;7024603;28;20597;-76
2022/03/03 09:57:15;;;;;;;24.57;15.97;;;;;;;14.71;28.29;98860.91;7025065;28;20570;-76
2022/03/03 10:00:40;;;;;;;20.03;14.63;;;;;;;13.39;29.34;98826.53;7024826;28;20231;-75
2022/03/03 10:04:15;;;;;;;19.13;13.80;;;;;;;13.99;28.95;98814.03;7024927;28;20663;-76
2022/03/03 10:07:37;;;;;;;18.87;14.97;;;;;;;13.27;29.01;98766.03;7038818;28;20242;-75
2022/03/03 10:11:02;;;;;;;17.63;14.07;;;;;;;11.76;30.90;98732.09;7050809;28;20203;-75
2022/03/03 10:14:26;;;;;;;20.53;15.17;;;;;;;13.55;29.27;98831.38;7050431;28;20229;-75
2022/03/03 10:17:47;;;;;;;20.13;14.10;;;;;;;13.87;29.85;98848.38;7052626;28;20205;-75
2022/03/03 10:21:09;;;;;;;18.57;14.10;;;;;;;14.95;27.63;98827.34;7052208;28;20214;-78
2022/03/03 10:24:31;;;;;;;21.33;15.93;;;;;;;14.47;28.62;98853.72;7052172;28;20287;-78
2022/03/03 10:27:54;;;;;;;18.73;15.50;;;;;;;15.39;27.41;98831.47;7080429;28;20210;-77
2022/03/03 10:31:20;;;;;;;21.70;15.73;;;;;;;14.89;27.87;98767.72;7080435;28;20207;-77
2022/03/03 10:34:43;;;;;;;34.27;24.17;;;;;;;15.02;27.93;98838.09;7080571;28;20202;-78
2022/03/03 10:38:05;;;;;;;22.33;14.87;;;;;;;14.06;28.50;98833.75;7065679;28;20215;-78
2022/03/03 10:41:31;;;;;;;18.77;15.43;;;;;;;15.02;28.99;98813.66;7052168;28;20611;-77
2022/03/03 10:45:07;;;;;;;21.40;15.47;;;;;;;16.10;26.87;98816.53;7052189;28;20246;-76
2022/03/03 10:48:29;;;;;;;18.50;15.40;;;;;;;15.58;26.99;98729.75;7053911;28;20193;-80
2022/03/03 10:51:51;;;;;;;18.87;15.70;;;;;;;15.69;27.62;98775.91;7051325;28;20206;-80
2022/03/03 10:55:16;;;;;;;20.20;15.07;;;;;;;15.60;28.17;98817.28;7055161;28;20252;-79
2022/03/03 10:58:53;;;;;;;28.43;16.53;;;;;;;15.11;28.64;98718.03;7059856;28;20730;-81
2022/03/03 11:02:16;;;;;;;83.77;33.97;;;;;;;15.64;28.38;98808.41;7058679;28;20200;-78
2022/03/03 11:05:39;;;;;;;27.10;15.63;;;;;;;15.59;28.23;98811.03;7050057;28;20201;-80
2022/03/03 11:09:01;;;;;;;23.47;15.53;;;;;;;15.95;27.86;98799.91;7030568;28;20226;-79
2022/03/03 11:12:23;;;;;;;23.03;14.90;;;;;;;15.84;27.70;98738.19;7034361;28;20208;-78
2022/03/03 11:15:45;;;;;;;18.03;14.97;;;;;;;15.62;26.54;98690.16;7059138;28;20241;-80
2022/03/03 11:19:08;;;;;;;19.77;14.50;;;;;;;14.73;28.31;98743.97;7057770;28;20232;-80
2022/03/03 11:22:42;;;;;;;16.87;14.40;;;;;;;15.17;27.91;98727.13;7041539;28;20216;-79
2022/03/03 11:26:04;;;;;;;20.63;15.37;;;;;;;15.89;27.82;98768.22;7030184;28;20182;-80
2022/03/03 11:29:26;;;;;;;20.90;16.10;;;;;;;16.10;26.58;98661.47;7051889;28;20196;-82
2022/03/03 11:33:22;;;;;;;21.57;16.13;;;;;;;16.33;26.04;98709.53;7057362;28;20243;-80
2022/03/03 11:36:44;;;;;;;35.40;24.80;;;;;;;16.39;26.73;98742.06;7057883;28;20230;-79
2022/03/03 11:40:07;;;;;;;30.70;23.20;;;;;;;15.70;26.72;98677.00;7058115;28;20678;-79
2022/03/03 11:43:30;;;;;;;16.67;14.30;;;;;;;15.08;27.63;98740.25;7057783;28;20202;-79
2022/03/03 11:46:52;;;;;;;18.47;14.67;;;;;;;15.42;26.80;98659.81;7057799;28;20349;-79
2022/03/03 11:50:22;;;;;;;19.07;15.07;;;;;;;16.37;26.60;98746.88;7055583;27;20196;-84
2022/03/03 11:53:49;;;;;;;20.73;15.30;;;;;;;15.47;26.54;98630.06;7064126;27;20623;-83
2022/03/03 11:57:23;;;;;;;16.13;13.17;;;;;;;16.40;27.23;98719.22;7056737;28;20201;-84
2022/03/03 12:00:46;;;;;;;18.53;15.07;;;;;;;17.24;25.41;98729.09;7055051;28;20208;-83
2022/03/03 12:04:08;;;;;;;18.93;15.07;;;;;;;17.09;25.43;98723.38;7040701;28;20207;-82
2022/03/03 12:07:31;;;;;;;20.00;15.73;;;;;;;16.43;25.87;98721.47;7055744;28;20225;-83
2022/03/03 12:11:05;;;;;;;20.80;15.80;;;;;;;16.09;26.12;98639.97;7056319;28;20657;-82
2022/03/03 12:14:33;;;;;;;20.67;16.00;;;;;;;15.64;26.71;98718.72;7056573;28;20217;-82
2022/03/03 12:17:58;;;;;;;21.87;15.67;;;;;;;16.65;26.33;98707.97;7056571;28;20189;-82
2022/03/03 12:21:29;;;;;;;19.17;15.53;;;;;;;17.11;25.41;98688.56;7059584;28;20232;-82
2022/03/03 12:24:52;;;;;;;20.43;15.73;;;;;;;16.80;24.75;98542.94;7056660;28;20236;-82
2022/03/03 12:28:18;;;;;;;22.90;16.40;;;;;;;16.86;25.23;98694.44;7055886;28;20226;-82
2022/03/03 12:31:42;;;;;;;20.50;15.73;;;;;;;16.72;25.23;98616.06;7055861;28;20205;-82
2022/03/03 12:35:10;;;;;;;20.63;15.07;;;;;;;17.82;24.30;98670.22;7055937;28;20558;-82
2022/03/03 12:38:34;;;;;;;21.80;15.03;;;;;;;16.59;24.76;98602.78;7055633;28;20696;-82
2022/03/03 12:41:57;;;;;;;19.13;15.37;;;;;;;17.22;24.55;98603.19;7055151;28;20211;-82
2022/03/03 12:45:20;;;;;;;22.80;16.70;;;;;;;17.08;25.25;98672.72;7055562;28;20208;-82
2022/03/03 12:48:46;;;;;;;19.80;15.47;;;;;;;17.28;25.18;98623.97;7055459;28;20635;-82
2022/03/03 12:52:07;;;;;;;19.10;15.43;;;;;;;17.29;24.25;98588.28;7055130;28;20222;-82
2022/03/03 12:55:31;;;;;;;21.33;16.97;;;;;;;16.87;25.33;98660.69;7055338;28;20216;-82
2022/03/03 12:58:54;;;;;;;17.10;15.03;;;;;;;17.32;25.04;98657.78;7055370;28;20228;-82
2022/03/03 13:02:16;;;;;;;19.10;15.77;;;;;;;17.09;24.43;98669.75;7054144;28;20219;-82
2022/03/03 13:05:41;;;;;;;18.33;16.37;;;;;;;16.78;25.53;98636.84;7054516;28;20211;-82
2022/03/03 13:09:05;;;;;;;19.80;15.40;;;;;;;17.67;24.76;98653.69;7054302;28;20216;-82
2022/03/03 13:12:27;;;;;;;21.83;16.97;;;;;;;17.11;24.91;98637.63;7054599;28;20271;-78
2022/03/03 13:15:51;;;;;;;21.53;16.60;;;;;;;17.08;25.14;98634.56;7055165;28;20645;-79
2022/03/03 13:19:12;;;;;;;25.60;16.93;;;;;;;16.93;25.24;98612.56;7054519;28;20228;-78
2022/03/03 13:22:36;;;;;;;20.13;15.87;;;;;;;17.18;25.24;98641.00;7053656;28;20200;-78
2022/03/03 13:26:06;;;;;;;20.63;16.33;;;;;;;17.52;25.13;98644.50;7054442;28;20646;-78
2022/03/03 13:29:28;;;;;;;23.53;17.00;;;;;;;17.76;25.15;98641.22;7054360;28;20196;-78
2022/03/03 13:32:52;;;;;;;20.10;16.53;;;;;;;17.10;25.80;98648.78;7053841;28;20547;-78
2022/03/03 13:36:15;;;;;;;20.57;17.03;;;;;;;16.90;26.05;98623.94;7053866;28;20208;-77
2022/03/03 13:39:38;;;;;;;21.60;17.23;;;;;;;17.18;25.95;98602.88;7054136;28;20223;-77
2022/03/03 13:43:04;;;;;;;20.97;16.40;;;;;;;17.57;26.33;98639.91;7053479;28;20201;-77
2022/03/03 13:46:29;;;;;;;22.80;16.27;;;;;;;17.25;26.18;98643.53;7054554;28;20559;-78
2022/03/03 13:49:53;;;;;;;21.03;16.97;;;;;;;16.89;26.46;98573.28;7053536;28;20203;-78
2022/03/03 13:53:22;;;;;;;24.33;16.30;;;;;;;16.81;26.21;98615.38;7053724;28;20661;-78
2022/03/03 13:56:44;;;;;;;22.37;16.13;;;;;;;16.92;26.40;98638.97;7053702;28;20192;-78
2022/03/03 14:00:12;;;;;;;25.90;16.73;;;;;;;16.83;27.14;98647.81;7044345;28;20227;-78
2022/03/03 14:03:35;;;;;;;19.83;15.60;;;;;;;16.49;27.33;98643.44;7060817;28;20209;-78
2022/03/03 14:06:58;;;;;;;19.83;16.03;;;;;;;16.88;26.95;98643.25;7038685;28;20228;-77
2022/03/03 14:10:20;;;;;;;23.60;16.60;;;;;;;17.05;27.32;98651.44;7039261;28;20221;-77
2022/03/03 14:13:50;;;;;;;20.47;15.77;;;;;;;16.88;27.27;98635.09;7051905;28;20204;-77
2022/03/03 14:17:12;;;;;;;22.67;16.23;;;;;;;17.18;27.03;98627.38;7052836;28;20237;-76
2022/03/03 14:20:34;;;;;;;21.97;16.53;;;;;;;16.44;26.56;98614.25;7034996;28;20251;-76
2022/03/03 14:23:57;;;;;;;21.73;16.13;;;;;;;16.26;26.43;98567.38;7064039;28;20295;-79
2022/03/03 14:27:19;;;;;;;21.27;15.93;;;;;;;16.76;26.41;98628.09;7047714;28;20630;-78
2022/03/03 14:30:41;;;;;;;25.33;17.00;;;;;;;16.62;26.47;98603.09;7053998;28;20201;-79
2022/03/03 14:34:03;;;;;;;30.73;19.07;;;;;;;16.36;26.49;98620.06;7062189;27;20197;-76
2022/03/03 14:37:24;;;;;;;22.43;16.70;;;;;;;16.15;26.40;98601.75;7072860;27;20206;-76
2022/03/03 14:40:48;;;;;;;18.17;14.73;;;;;;;16.57;25.56;98583.97;7067355;27;20266;-76
2022/03/03 14:44:10;;;;;;;22.93;17.20;;;;;;;16.73;25.37;98632.16;7068601;27;20200;-77
2022/03/03 14:47:31;;;;;;;24.53;17.00;;;;;;;16.65;25.03;98588.19;7070771;27;20207;-76
2022/03/03 14:50:53;;;;;;;18.67;16.03;;;;;;;16.00;25.24;98519.91;7067510;27;20203;-76
2022/03/03 14:54:15;;;;;;;20.80;16.43;;;;;;;16.83;24.66;98628.75;7067294;27;20203;-76
2022/03/03 14:57:38;;;;;;;19.30;15.50;;;;;;;16.35;24.39;98595.81;7058786;27;20196;-76
2022/03/03 15:01:01;;;;;;;17.33;13.70;;;;;;;16.40;23.62;98582.34;7057532;28;20227;-77
2022/03/03 15:04:23;;;;;;;18.33;14.80;;;;;;;16.79;23.82;98594.91;7057916;28;20219;-76
2022/03/03 15:07:45;;;;;;;17.23;13.40;;;;;;;16.66;23.56;98608.88;7058139;28;20231;-76
2022/03/03 15:11:08;;;;;;;18.03;13.80;;;;;;;17.06;23.19;98607.59;7057021;28;20211;-77
2022/03/03 15:14:31;;;;;;;16.37;13.63;;;;;;;16.58;23.67;98603.88;7057420;28;20212;-76
2022/03/03 15:17:53;;;;;;;17.80;13.33;;;;;;;16.47;24.08;98604.78;7058093;28;20544;-76
2022/03/03 15:21:14;;;;;;;15.93;13.53;;;;;;;16.40;23.75;98613.09;7056893;28;20230;-77
2022/03/03 15:24:36;;;;;;;17.53;14.70;;;;;;;16.09;24.39;98551.03;7057233;28;20208;-76
2022/03/03 15:27:57;;;;;;;16.37;12.80;;;;;;;16.54;23.93;98605.41;7056917;28;20593;-76
2022/03/03 15:31:21;;;;;;;17.90;13.40;;;;;;;15.61;24.81;98492.81;7045739;28;20222;-76
2022/03/03 15:38:22;;;;;;;17.20;13.27;;;;;;;17.16;23.12;98587.84;7052136;28;20211;-76
2022/03/03 15:41:44;;;;;;;15.07;11.77;;;;;;;16.35;22.47;98598.53;7040310;28;20226;-76
2022/03/03 15:45:06;;;;;;;15.77;12.90;;;;;;;16.28;22.93;98589.72;7038939;28;20201;-76
2022/03/03 15:48:30;;;;;;;12.73;11.10;;;;;;;16.27;21.51;98569.03;7055248;28;20663;-76
2022/03/03 15:51:52;;;;;;;12.40;10.40;;;;;;;17.14;20.93;98589.97;7056441;28;20204;-76
2022/03/03 15:55:14;;;;;;;14.60;9.63;;;;;;;16.68;20.26;98536.78;7035682;28;20200;-76
2022/03/03 15:58:36;;;;;;;11.57;9.73;;;;;;;16.35;20.93;98565.91;7050056;28;20705;-76
2022/03/03 16:01:58;;;;;;;11.10;9.60;;;;;;;16.05;21.47;98502.84;7053490;28;20222;-76
2022/03/03 16:05:21;;;;;;;11.27;9.93;;;;;;;16.25;21.38;98569.28;7054116;28;20208;-76
2022/03/03 16:08:44;;;;;;;11.10;9.27;;;;;;;16.09;21.36;98572.81;7063273;27;20222;-76
2022/03/03 16:12:08;;;;;;;11.97;10.17;;;;;;;16.50;20.75;98585.22;7069951;27;20195;-76
2022/03/03 16:15:30;;;;;;;11.33;9.73;;;;;;;16.13;21.16;98582.13;7070479;27;20294;-76
2022/03/03 16:18:52;;;;;;;10.37;9.23;;;;;;;15.41;21.90;98595.69;7051792;28;20215;-76
2022/03/03 16:22:15;;;;;;;13.57;8.73;;;;;;;15.80;21.19;98589.41;7054351;28;20212;-77
2022/03/03 16:25:36;;;;;;;11.47;8.80;;;;;;;16.13;20.95;98594.91;7054575;28;20680;-77
2022/03/03 16:28:59;;;;;;;12.57;8.90;;;;;;;15.37;21.27;98502.97;7055979;28;20276;-76
2022/03/03 16:32:22;;;;;;;11.03;8.03;;;;;;;15.88;20.92;98592.56;7054726;28;20215;-76
2022/03/03 16:35:44;;;;;;;11.77;8.07;;;;;;;15.84;21.01;98549.78;7055589;28;20335;-78
2022/03/03 16:39:07;;;;;;;9.43;8.43;;;;;;;14.99;21.29;98502.72;7055422;28;20208;-79
2022/03/03 16:42:29;;;;;;;13.10;8.63;;;;;;;15.69;21.19;98572.06;7054807;28;20226;-75
2022/03/03 16:45:51;;;;;;;9.67;8.00;;;;;;;15.79;21.02;98593.16;7052092;28;20205;-75
2022/03/03 16:49:13;;;;;;;10.13;8.17;;;;;;;15.76;21.59;98604.53;7048147;28;20218;-75
2022/03/03 16:52:35;;;;;;;10.43;8.47;;;;;;;15.75;21.28;98608.34;7040632;28;20258;-75
2022/03/03 16:55:58;;;;;;;9.57;8.23;;;;;;;15.41;21.47;98601.13;7049304;28;20204;-76
2022/03/03 16:59:21;;;;;;;10.83;8.00;;;;;;;15.42;21.65;98591.91;7054678;28;20208;-76
2022/03/03 17:02:43;;;;;;;8.93;8.03;;;;;;;15.05;21.92;98580.50;7053746;28;20305;-76
2022/03/03 17:06:05;;;;;;;11.30;8.03;;;;;;;15.03;22.00;98598.94;7053835;28;20205;-79
2022/03/03 17:09:32;;;;;;;9.60;7.90;;;;;;;15.02;22.18;98646.16;7051168;28;20276;-76
2022/03/03 17:12:55;;;;;;;9.50;7.70;;;;;;;14.88;22.28;98639.31;7053968;28;20212;-76
2022/03/03 17:16:17;;;;;;;11.17;8.23;;;;;;;14.70;23.35;98625.84;7054612;28;20189;-75
2022/03/03 17:19:38;;;;;;;10.20;8.07;;;;;;;13.40;24.38;98532.19;7054899;28;20206;-77
2022/03/03 17:23:00;;;;;;;13.60;8.77;;;;;;;14.41;23.88;98629.50;7052845;28;20202;-77
2022/03/03 17:26:22;;;;;;;12.73;8.43;;;;;;;14.21;23.94;98633.59;7054035;28;20658;-77
2022/03/03 17:29:45;;;;;;;17.00;8.77;;;;;;;14.21;24.07;98637.09;7054163;28;20196;-77
2022/03/03 17:33:06;;;;;;;11.97;9.00;;;;;;;13.64;24.72;98629.56;7052867;28;20245;-76
2022/03/03 17:36:28;;;;;;;13.73;9.00;;;;;;;12.97;25.44;98648.69;7053719;28;20727;-77
2022/03/03 17:39:50;;;;;;;10.60;8.77;;;;;;;12.94;26.43;98651.00;7053997;28;20204;-76
2022/03/03 17:43:12;;;;;;;13.93;9.77;;;;;;;12.99;26.05;98643.06;7042656;28;20743;-75
2022/03/03 17:46:38;;;;;;;14.17;9.37;;;;;;;13.14;26.78;98668.72;7058953;27;20208;-75